createdAt,value
2022-12-24T00:01:21.878Z,5.07
2022-12-24T00:03:48.462Z,4.95
2022-12-24T00:06:24.747Z,5.00
2022-12-24T00:08:54.799Z,4.80
2022-12-24T00:11:24.055Z,4.28
2022-12-24T00:13:50.642Z,4.00
2022-12-24T00:16:17.324Z,3.78
2022-12-24T00:18:46.581Z,3.20
2022-12-24T00:21:13.844Z,3.95
2022-12-24T00:23:40.924Z,3.88
2022-12-24T00:26:08.499Z,3.85
2022-12-24T00:28:35.151Z,4.22
2022-12-24T00:31:10.617Z,4.30
2022-12-24T00:33:37.386Z,4.40
2022-12-24T00:36:04.141Z,4.78
2022-12-24T00:38:32.294Z,4.85
2022-12-24T00:41:00.911Z,5.20
2022-12-24T00:43:28.973Z,4.93
2022-12-24T00:45:56.318Z,5.30
2022-12-24T00:48:23.113Z,4.68
2022-12-24T00:50:50.949Z,4.35
2022-12-24T00:53:18.684Z,4.20
2022-12-24T00:55:45.161Z,4.22
2022-12-24T00:58:15.019Z,4.20
2022-12-24T01:00:41.552Z,4.55
2022-12-24T01:03:08.327Z,4.43
2022-12-24T01:05:34.996Z,3.95
2022-12-24T01:08:01.542Z,4.50
2022-12-24T01:10:35.852Z,3.75
2022-12-24T01:13:03.331Z,3.50
2022-12-24T01:15:29.973Z,4.00
2022-12-24T01:17:56.562Z,3.55
2022-12-24T01:20:22.996Z,3.45
2022-12-24T01:22:49.522Z,3.15
2022-12-24T01:25:16.057Z,3.60
2022-12-24T01:27:42.532Z,2.88
2022-12-24T01:30:13.172Z,2.50
2022-12-24T01:32:42.907Z,2.45
2022-12-24T01:35:13.318Z,2.35
2022-12-24T01:37:39.864Z,2.42
2022-12-24T01:40:32.677Z,2.60
2022-12-24T01:43:18.975Z,2.83
2022-12-24T01:46:01.683Z,2.90
2022-12-24T01:48:44.135Z,2.65
2022-12-24T01:51:19.705Z,3.20
2022-12-24T01:53:52.135Z,2.72
2022-12-24T01:56:20.978Z,2.75
2022-12-24T01:58:57.233Z,2.67
2022-12-24T02:01:24.520Z,2.72
2022-12-24T02:03:51.386Z,2.55
2022-12-24T02:06:20.719Z,2.40
2022-12-24T02:08:47.501Z,2.00
2022-12-24T02:11:22.119Z,2.40
2022-12-24T02:13:54.072Z,2.10
2022-12-24T02:20:01.206Z,1.92
2022-12-24T02:22:36.549Z,2.10
2022-12-24T02:25:15.051Z,1.83
2022-12-24T02:27:45.105Z,2.05
2022-12-24T02:30:16.990Z,1.90
2022-12-24T02:33:05.462Z,2.00
2022-12-24T02:35:58.292Z,1.60
2022-12-24T02:38:39.684Z,1.98
2022-12-24T02:41:22.513Z,1.60
2022-12-24T02:43:51.784Z,1.65
2022-12-24T02:46:24.217Z,2.13
2022-12-24T02:48:51.139Z,2.10
2022-12-24T02:51:23.402Z,1.83
2022-12-24T02:53:50.038Z,2.30
2022-12-24T02:56:25.623Z,2.40
2022-12-24T02:59:17.090Z,2.05
2022-12-24T03:02:04.788Z,1.90
2022-12-24T03:04:57.551Z,2.55
2022-12-24T03:07:36.954Z,2.22
2022-12-24T03:10:24.337Z,2.47
2022-12-24T03:12:55.935Z,2.28
2022-12-24T03:15:25.781Z,2.92
2022-12-24T03:17:56.329Z,2.60
2022-12-24T03:20:30.079Z,2.83
2022-12-24T03:22:57.265Z,3.20
2022-12-24T03:25:26.173Z,3.40
2022-12-24T03:27:53.618Z,3.10
2022-12-24T03:30:20.545Z,3.55
2022-12-24T03:32:47.236Z,2.72
2022-12-24T03:35:14.323Z,2.17
2022-12-24T03:37:41.081Z,2.45
2022-12-24T03:40:08.515Z,3.25
2022-12-24T03:42:35.111Z,2.85
2022-12-24T03:45:01.551Z,3.58
2022-12-24T03:47:28.118Z,3.50
2022-12-24T03:49:54.638Z,3.40
2022-12-24T03:52:21.148Z,3.10
2022-12-24T03:54:47.694Z,3.30
2022-12-24T03:57:14.180Z,4.10
2022-12-24T03:59:40.815Z,4.07
2022-12-24T04:02:07.447Z,4.10
2022-12-24T04:04:36.773Z,4.57
2022-12-24T04:07:04.797Z,6.35
2022-12-24T04:09:31.313Z,6.50
2022-12-24T04:11:57.812Z,6.47
2022-12-24T04:14:24.393Z,7.68
2022-12-24T04:16:50.896Z,6.80
2022-12-24T04:19:17.479Z,7.05
2022-12-24T04:21:43.919Z,7.82
2022-12-24T04:24:10.405Z,7.50
2022-12-24T04:26:36.861Z,7.13
2022-12-24T04:29:03.395Z,6.80
2022-12-24T04:31:30.028Z,7.82
2022-12-24T04:33:56.518Z,8.65
2022-12-24T04:36:23.062Z,7.13
2022-12-24T04:38:49.902Z,7.53
2022-12-24T04:41:23.867Z,7.70
2022-12-24T04:43:52.601Z,8.32
2022-12-24T04:46:22.025Z,7.25
2022-12-24T04:48:50.751Z,7.25
2022-12-24T04:51:18.529Z,7.10
2022-12-24T04:53:45.011Z,6.97
2022-12-24T04:56:17.160Z,6.82
2022-12-24T04:58:44.146Z,5.90
2022-12-24T05:01:17.933Z,6.38
2022-12-24T05:03:44.630Z,5.30
2022-12-24T05:06:14.654Z,6.60
2022-12-24T05:08:41.891Z,4.97
2022-12-24T05:11:08.406Z,5.72
2022-12-24T05:13:44.070Z,5.50
2022-12-24T05:16:13.285Z,5.70
2022-12-24T05:18:40.185Z,5.32
2022-12-24T05:21:25.545Z,5.65
2022-12-24T05:24:11.569Z,5.95
2022-12-24T05:26:58.797Z,6.40
2022-12-24T05:29:25.275Z,10.30
2022-12-24T05:31:51.727Z,5.70
2022-12-24T05:34:18.243Z,7.13
2022-12-24T05:36:45.400Z,10.07
2022-12-24T05:39:16.693Z,7.20
2022-12-24T05:41:44.546Z,7.50
2022-12-24T05:44:11.216Z,8.27
2022-12-24T05:46:37.953Z,7.93
2022-12-24T05:49:04.523Z,8.10
2022-12-24T05:51:31.008Z,7.75
2022-12-24T05:53:57.456Z,8.57
2022-12-24T05:56:24.761Z,8.32
2022-12-24T05:58:52.447Z,8.15
2022-12-24T06:01:20.156Z,9.50
2022-12-24T06:03:46.981Z,7.78
2022-12-24T06:06:23.515Z,7.70
2022-12-24T06:08:51.182Z,8.52
2022-12-24T06:11:20.519Z,8.52
2022-12-24T06:13:47.313Z,7.72
2022-12-24T06:16:18.870Z,8.52
2022-12-24T06:18:46.001Z,7.53
2022-12-24T06:21:13.120Z,7.88
2022-12-24T06:23:41.945Z,7.70
2022-12-24T06:26:11.299Z,8.25
2022-12-24T06:28:38.448Z,7.22
2022-12-24T06:31:07.543Z,8.43
2022-12-24T06:33:34.967Z,8.48
2022-12-24T06:36:01.905Z,8.45
2022-12-24T06:38:34.363Z,6.68
2022-12-24T06:41:08.636Z,8.13
2022-12-24T06:43:35.686Z,7.50
2022-12-24T06:46:03.930Z,7.97
2022-12-24T06:48:30.852Z,8.20
2022-12-24T06:50:57.321Z,8.82
2022-12-24T06:53:23.875Z,8.48
2022-12-24T06:55:50.399Z,8.32
2022-12-24T06:58:16.881Z,8.30
2022-12-24T07:00:43.319Z,8.68
2022-12-24T07:03:09.867Z,7.47
2022-12-24T07:05:36.300Z,8.32
2022-12-24T07:08:02.793Z,8.00
2022-12-24T07:10:29.304Z,7.57
2022-12-24T07:12:55.861Z,8.25
2022-12-24T07:15:22.386Z,7.90
2022-12-24T07:17:48.963Z,7.45
2022-12-24T07:20:15.647Z,7.30
2022-12-24T07:22:45.179Z,7.82
2022-12-24T07:25:11.933Z,7.28
2022-12-24T07:27:39.292Z,6.70
2022-12-24T07:30:06.964Z,7.38
2022-12-24T07:32:33.540Z,6.95
2022-12-24T07:35:00.123Z,6.75
2022-12-24T07:37:26.698Z,7.47
2022-12-24T07:39:53.182Z,6.55
2022-12-24T07:42:22.630Z,6.38
2022-12-24T07:44:51.721Z,7.35
2022-12-24T07:47:18.217Z,6.68
2022-12-24T07:49:44.775Z,7.88
2022-12-24T07:52:11.484Z,7.00
2022-12-24T07:54:37.967Z,8.15
2022-12-24T07:57:04.473Z,6.90
2022-12-24T07:59:30.988Z,8.10
2022-12-24T08:01:57.610Z,7.25
2022-12-24T08:04:24.534Z,6.70
2022-12-24T08:06:51.158Z,7.13
2022-12-24T08:09:17.624Z,8.65
2022-12-24T08:11:51.361Z,13.00
2022-12-24T08:14:18.381Z,18.67
2022-12-24T08:16:44.937Z,25.65
2022-12-24T08:19:11.486Z,20.02
2022-12-24T08:21:37.946Z,10.65
2022-12-24T08:24:04.942Z,9.65
2022-12-24T08:26:31.487Z,10.10
2022-12-24T08:29:04.393Z,14.75
2022-12-24T08:31:36.341Z,22.83
2022-12-24T08:34:08.981Z,12.35
2022-12-24T08:36:38.528Z,12.07
2022-12-24T08:39:05.778Z,10.02
2022-12-24T08:41:32.761Z,9.20
2022-12-24T08:44:02.710Z,13.77
2022-12-24T08:46:32.800Z,10.15
2022-12-24T08:48:59.258Z,10.15
2022-12-24T08:51:25.815Z,10.27
2022-12-24T08:53:52.350Z,16.15
2022-12-24T08:56:23.816Z,10.68
2022-12-24T08:58:50.346Z,10.82
2022-12-24T09:01:23.561Z,18.17
2022-12-24T09:03:50.237Z,11.38
2022-12-24T09:06:20.171Z,15.05
2022-12-24T09:08:46.666Z,12.70
2022-12-24T09:11:18.455Z,9.05
2022-12-24T09:13:45.020Z,10.43
2022-12-24T09:16:12.762Z,9.02
2022-12-24T09:18:39.443Z,9.90
2022-12-24T09:21:09.916Z,11.93
2022-12-24T09:23:44.308Z,9.55
2022-12-24T09:26:15.167Z,9.73
2022-12-24T09:28:41.809Z,14.02
2022-12-24T09:31:10.460Z,10.80
2022-12-24T09:33:38.790Z,9.77
2022-12-24T09:36:06.198Z,12.40
2022-12-24T09:38:33.512Z,12.20
2022-12-24T09:41:07.094Z,10.07
2022-12-24T09:43:37.626Z,9.00
2022-12-24T09:46:21.127Z,12.10
2022-12-24T09:49:02.237Z,11.38
2022-12-24T09:51:36.988Z,10.13
2022-12-24T09:54:14.383Z,7.65
2022-12-24T09:56:45.531Z,6.45
2022-12-24T09:59:20.308Z,7.50
2022-12-24T10:01:47.828Z,6.90
2022-12-24T10:04:16.912Z,7.82
2022-12-24T10:07:10.514Z,6.97
2022-12-24T10:09:52.112Z,7.68
2022-12-24T10:12:25.331Z,10.63
2022-12-24T10:15:19.404Z,12.90
2022-12-24T10:18:13.701Z,8.02
2022-12-24T10:20:49.683Z,9.48
2022-12-24T10:23:38.307Z,9.27
2022-12-24T10:26:15.677Z,8.60
2022-12-24T10:28:56.804Z,5.72
2022-12-24T10:31:31.866Z,5.20
2022-12-24T10:34:08.281Z,5.07
2022-12-24T10:36:37.536Z,4.07
2022-12-24T10:39:04.109Z,4.60
2022-12-24T10:41:31.683Z,4.75
2022-12-24T10:44:00.017Z,6.03
2022-12-24T10:46:38.153Z,4.80
2022-12-24T10:49:32.528Z,6.65
2022-12-24T10:52:35.548Z,5.10
2022-12-24T10:55:07.371Z,4.68
2022-12-24T10:57:34.315Z,6.25
2022-12-24T11:00:01.412Z,5.20
2022-12-24T11:02:36.941Z,5.40
2022-12-24T11:05:07.502Z,9.25
2022-12-24T11:07:37.482Z,3.90
2022-12-24T11:10:08.146Z,3.38
2022-12-24T11:12:38.950Z,3.83
2022-12-24T11:15:07.637Z,6.45
2022-12-24T11:17:34.454Z,8.55
2022-12-24T11:20:03.377Z,9.90
2022-12-24T11:22:32.537Z,6.13
2022-12-24T11:25:08.166Z,6.45
2022-12-24T11:27:49.712Z,13.73
2022-12-24T11:30:16.401Z,4.82
2022-12-24T11:32:44.778Z,4.85
2022-12-24T11:35:18.777Z,6.15
2022-12-24T11:37:45.256Z,7.50
2022-12-24T11:40:24.119Z,14.27
2022-12-24T11:42:53.822Z,6.85
2022-12-24T11:45:27.497Z,12.32
2022-12-24T11:47:54.532Z,15.20
2022-12-24T11:50:27.526Z,11.90
2022-12-24T11:53:04.356Z,5.78
2022-12-24T11:55:41.796Z,5.93
2022-12-24T11:58:20.236Z,4.88
2022-12-24T12:00:49.290Z,4.47
2022-12-24T12:03:35.799Z,5.45
2022-12-24T12:06:19.597Z,22.38
2022-12-24T12:08:47.632Z,19.38
2022-12-24T12:11:15.147Z,40.45
2022-12-24T12:13:45.983Z,13.93
2022-12-24T12:16:23.250Z,15.65
2022-12-24T12:19:05.636Z,9.98
2022-12-24T12:21:43.203Z,26.75
2022-12-24T12:24:19.530Z,27.70
2022-12-24T12:26:49.235Z,15.10
2022-12-24T12:29:15.623Z,14.82
2022-12-24T12:31:47.860Z,14.30
2022-12-24T12:34:23.758Z,21.38
2022-12-24T12:37:14.915Z,17.08
2022-12-24T12:39:42.507Z,12.20
2022-12-24T12:42:32.893Z,11.68
2022-12-24T12:45:28.327Z,13.38
2022-12-24T12:48:10.056Z,12.93
2022-12-24T12:50:58.499Z,13.10
2022-12-24T12:53:50.634Z,15.10
2022-12-24T12:56:37.737Z,11.65
2022-12-24T12:59:30.251Z,15.15
2022-12-24T13:02:18.439Z,11.98
2022-12-24T13:05:22.151Z,18.52
2022-12-24T13:08:08.899Z,12.00
2022-12-24T13:10:56.912Z,10.48
2022-12-24T13:13:44.662Z,11.55
2022-12-24T13:16:45.409Z,12.18
2022-12-24T13:19:23.076Z,10.95
2022-12-24T13:21:53.224Z,10.18
2022-12-24T13:24:22.702Z,9.93
2022-12-24T13:27:06.916Z,10.20
2022-12-24T13:29:33.319Z,10.07
2022-12-24T13:32:23.052Z,10.88
2022-12-24T13:34:52.374Z,9.82
2022-12-24T13:37:23.360Z,10.20
2022-12-24T13:40:08.467Z,9.85
2022-12-24T13:43:10.393Z,9.63
2022-12-24T13:45:36.825Z,19.63
2022-12-24T13:48:06.305Z,11.73
2022-12-24T13:50:38.669Z,22.35
2022-12-24T13:53:18.563Z,12.63
2022-12-24T13:56:08.353Z,14.95
2022-12-24T13:58:50.620Z,10.20
2022-12-24T14:01:21.422Z,11.68
2022-12-24T14:03:53.553Z,17.90
2022-12-24T14:08:57.857Z,14.10
2022-12-24T14:11:28.311Z,13.63
2022-12-24T14:14:05.738Z,17.00
2022-12-24T14:16:43.453Z,11.25
2022-12-24T14:19:18.595Z,12.68
2022-12-24T14:22:23.159Z,10.13
2022-12-24T14:24:58.780Z,12.05
2022-12-24T14:27:42.926Z,12.10
2022-12-24T14:30:30.535Z,10.20
2022-12-24T14:32:57.194Z,13.75
2022-12-24T14:35:42.003Z,14.90
2022-12-24T14:38:18.114Z,11.15
2022-12-24T14:41:09.359Z,12.98
2022-12-24T14:44:06.853Z,11.48
2022-12-24T14:46:48.611Z,9.38
2022-12-24T14:49:38.284Z,10.02
2022-12-24T14:55:35.294Z,10.50
2022-12-24T14:58:33.908Z,10.43
2022-12-24T15:01:03.248Z,9.23
2022-12-24T15:03:33.081Z,9.98
2022-12-24T15:06:04.032Z,11.00
2022-12-24T15:08:40.101Z,14.00
2022-12-24T15:11:09.276Z,14.27
2022-12-24T15:13:44.260Z,12.35
2022-12-24T15:16:13.913Z,12.98
2022-12-24T15:18:55.105Z,11.23
2022-12-24T15:21:32.924Z,13.27
2022-12-24T15:24:01.084Z,15.30
2022-12-24T15:26:36.697Z,10.52
2022-12-24T15:29:20.915Z,15.35
2022-12-24T15:31:53.396Z,13.18
2022-12-24T15:34:48.279Z,9.75
2022-12-24T15:37:39.674Z,9.95
2022-12-24T15:40:22.850Z,9.90
2022-12-24T15:42:49.644Z,13.07
2022-12-24T15:45:26.648Z,12.88
2022-12-24T15:48:00.528Z,10.23
2022-12-24T15:50:30.105Z,10.20
2022-12-24T15:53:20.564Z,9.77
2022-12-24T15:56:12.387Z,9.68
2022-12-24T15:58:44.548Z,12.32
2022-12-24T16:01:13.932Z,12.05
2022-12-24T16:03:54.794Z,22.25
2022-12-24T16:06:22.729Z,10.93
2022-12-24T16:08:50.952Z,11.77
2022-12-24T16:11:36.977Z,13.35
2022-12-24T16:14:20.202Z,10.48
2022-12-24T16:16:49.414Z,11.07
2022-12-24T16:19:22.723Z,11.45
2022-12-24T16:21:54.776Z,11.48
2022-12-24T16:26:52.715Z,11.88
2022-12-24T16:29:19.857Z,10.45
2022-12-24T16:31:58.312Z,13.77
2022-12-24T16:34:28.102Z,14.48
2022-12-24T16:36:55.416Z,11.82
2022-12-24T16:39:30.491Z,12.18
2022-12-24T16:42:18.276Z,12.38
2022-12-24T16:44:45.564Z,10.52
2022-12-24T16:47:25.019Z,10.52
2022-12-24T16:49:51.871Z,10.10
2022-12-24T16:52:22.226Z,9.98
2022-12-24T16:54:49.822Z,10.65
2022-12-24T16:57:16.714Z,9.00
2022-12-24T16:59:43.223Z,9.18
2022-12-24T17:02:15.017Z,12.65
2022-12-24T17:04:42.249Z,10.45
2022-12-24T17:07:10.782Z,10.35
2022-12-24T17:09:37.334Z,9.98
2022-12-24T17:12:05.602Z,9.50
2022-12-24T17:14:32.184Z,11.50
2022-12-24T17:16:58.753Z,12.63
2022-12-24T17:19:25.343Z,12.27
2022-12-24T17:21:51.802Z,12.52
2022-12-24T17:24:18.363Z,12.13
2022-12-24T17:26:44.942Z,10.77
2022-12-24T17:29:11.559Z,10.63
2022-12-24T17:31:39.282Z,8.82
2022-12-24T17:34:06.441Z,9.00
2022-12-24T17:36:32.946Z,8.65
2022-12-24T17:38:59.433Z,8.73
2022-12-24T17:41:26.028Z,10.05
2022-12-24T17:43:52.532Z,11.05
2022-12-24T17:46:22.478Z,9.10
2022-12-24T17:48:50.316Z,9.90
2022-12-24T17:51:19.233Z,9.60
2022-12-24T17:53:45.817Z,8.38
2022-12-24T17:56:14.239Z,8.93
2022-12-24T17:58:42.969Z,8.63
2022-12-24T18:01:19.233Z,8.73
2022-12-24T18:03:46.941Z,10.18
2022-12-24T18:06:14.020Z,27.83
2022-12-24T18:08:41.968Z,13.20
2022-12-24T18:11:23.695Z,13.80
2022-12-24T18:13:51.338Z,27.85
2022-12-24T18:16:25.354Z,41.28
2022-12-24T18:18:53.051Z,16.70
2022-12-24T18:21:21.853Z,10.98
2022-12-24T18:23:50.364Z,9.98
2022-12-24T18:26:18.729Z,8.75
2022-12-24T18:28:46.167Z,8.93
2022-12-24T18:31:18.397Z,9.10
2022-12-24T18:33:46.338Z,9.27
2022-12-24T18:36:15.932Z,9.05
2022-12-24T18:38:42.783Z,10.35
2022-12-24T18:41:15.805Z,11.52
2022-12-24T18:43:42.479Z,10.20
2022-12-24T18:46:11.170Z,11.65
2022-12-24T18:48:38.327Z,10.15
2022-12-24T18:51:06.616Z,10.27
2022-12-24T18:53:33.963Z,10.25
2022-12-24T18:56:10.647Z,9.15
2022-12-24T18:58:42.120Z,9.20
2022-12-24T19:01:17.573Z,8.93
2022-12-24T19:03:44.533Z,10.85
2022-12-24T19:06:11.567Z,10.25
2022-12-24T19:11:26.667Z,10.00
2022-12-24T19:13:53.450Z,11.00
2022-12-24T19:16:20.414Z,10.25
2022-12-24T19:18:47.260Z,11.27
2022-12-24T19:21:15.647Z,11.57
2022-12-24T19:23:42.338Z,12.02
2022-12-24T19:26:10.903Z,12.13
2022-12-24T19:28:38.009Z,14.23
2022-12-24T19:31:07.184Z,14.38
2022-12-24T19:33:43.229Z,13.95
2022-12-24T19:36:13.319Z,12.13
2022-12-24T19:38:40.786Z,13.23
2022-12-24T19:41:21.796Z,12.35
2022-12-24T19:43:51.415Z,12.15
2022-12-24T19:46:23.687Z,13.57
2022-12-24T19:48:52.192Z,14.18
2022-12-24T19:51:19.715Z,13.13
2022-12-24T19:53:47.610Z,13.90
2022-12-24T19:56:16.095Z,13.32
2022-12-24T19:58:42.788Z,14.15
2022-12-24T20:01:15.957Z,13.82
2022-12-24T20:03:43.565Z,13.10
2022-12-24T20:06:10.458Z,14.10
2022-12-24T20:08:38.898Z,13.73
2022-12-24T20:11:07.881Z,13.65
2022-12-24T20:13:35.240Z,12.68
2022-12-24T20:16:06.740Z,12.45
2022-12-24T20:18:33.662Z,12.23
2022-12-24T20:21:05.698Z,12.40
2022-12-24T20:26:04.281Z,12.57
2022-12-24T20:28:33.346Z,12.00
2022-12-24T20:30:59.895Z,12.25
2022-12-24T20:33:26.456Z,12.30
2022-12-24T20:35:53.268Z,10.23
2022-12-24T20:38:19.845Z,10.30
2022-12-24T20:40:47.168Z,9.85
2022-12-24T20:43:13.652Z,10.50
2022-12-24T20:45:40.929Z,10.10
2022-12-24T20:48:07.667Z,9.38
2022-12-24T20:50:34.157Z,9.63
2022-12-24T20:53:00.768Z,9.27
2022-12-24T20:55:27.445Z,10.20
2022-12-24T20:57:53.945Z,10.00
2022-12-24T21:00:21.026Z,10.75
2022-12-24T21:02:47.650Z,11.27
2022-12-24T21:05:14.351Z,10.73
2022-12-24T21:07:42.921Z,11.68
2022-12-24T21:10:11.311Z,10.73
2022-12-24T21:12:50.016Z,10.38
2022-12-24T21:15:21.973Z,10.95
2022-12-24T21:20:16.691Z,11.35
2022-12-24T21:22:43.670Z,10.68
2022-12-24T21:25:11.458Z,10.65
2022-12-24T21:27:38.470Z,10.57
2022-12-24T21:30:08.069Z,10.85
2022-12-24T21:32:35.781Z,11.75
2022-12-24T21:35:03.137Z,12.80
2022-12-24T21:37:29.701Z,11.68
2022-12-24T21:39:56.161Z,11.73
2022-12-24T21:42:22.680Z,12.43
2022-12-24T21:44:49.170Z,11.35
2022-12-24T21:47:15.698Z,11.23
2022-12-24T21:50:00.373Z,10.35
2022-12-24T21:52:26.938Z,9.73
2022-12-24T21:54:53.456Z,9.30
2022-12-24T21:57:38.517Z,10.15
2022-12-24T22:00:21.555Z,9.77
2022-12-24T22:02:57.118Z,9.68
2022-12-24T22:05:26.101Z,9.35
2022-12-24T22:08:15.479Z,9.10
2022-12-24T22:11:00.376Z,8.25
2022-12-24T22:13:29.831Z,9.15
2022-12-24T22:15:56.557Z,8.43
2022-12-24T22:18:26.815Z,8.05
2022-12-24T22:20:53.350Z,10.00
2022-12-24T22:23:20.139Z,8.43
2022-12-24T22:25:47.402Z,8.57
2022-12-24T22:28:14.354Z,9.35
2022-12-24T22:30:42.845Z,8.43
2022-12-24T22:33:09.777Z,8.32
2022-12-24T22:35:40.465Z,7.45
2022-12-24T22:38:09.255Z,7.40
2022-12-24T22:40:38.429Z,8.20
2022-12-24T22:43:04.898Z,7.80
2022-12-24T22:45:31.500Z,8.82
2022-12-24T22:47:58.031Z,9.07
2022-12-24T22:50:24.542Z,8.38
2022-12-24T22:52:52.597Z,9.20
2022-12-24T22:55:19.103Z,10.00
2022-12-24T22:57:45.581Z,8.82
2022-12-24T23:00:39.193Z,8.85
2022-12-24T23:03:06.335Z,8.88
2022-12-24T23:05:33.056Z,8.65
2022-12-24T23:07:59.749Z,8.95
2022-12-24T23:10:28.006Z,8.85
2022-12-24T23:13:15.057Z,7.85
2022-12-24T23:15:42.091Z,8.85
2022-12-24T23:18:09.080Z,9.00
2022-12-24T23:20:45.269Z,9.30
2022-12-24T23:23:12.366Z,9.40
2022-12-24T23:25:38.933Z,9.13
2022-12-24T23:28:06.100Z,8.57
2022-12-24T23:30:32.890Z,9.13
2022-12-24T23:32:59.478Z,9.10
2022-12-24T23:35:26.040Z,9.65
2022-12-24T23:37:52.539Z,8.57
2022-12-24T23:40:19.125Z,9.80
2022-12-24T23:42:45.584Z,8.65
2022-12-24T23:45:12.162Z,9.65
2022-12-24T23:47:38.822Z,8.60
2022-12-24T23:50:06.198Z,8.30
2022-12-24T23:52:32.697Z,8.30
2022-12-24T23:54:59.143Z,8.05
2022-12-24T23:57:25.644Z,8.65
2022-12-24T23:59:52.083Z,7.93
